createdAt,value
2023-03-17T00:01:29.602Z,11.30
2023-03-17T00:03:55.850Z,10.93
2023-03-17T00:06:27.747Z,11.63
2023-03-17T00:08:54.453Z,10.93
2023-03-17T00:11:21.321Z,11.03
2023-03-17T00:13:48.202Z,10.90
2023-03-17T00:16:21.280Z,11.70
2023-03-17T00:18:49.421Z,12.10
2023-03-17T00:21:24.060Z,12.83
2023-03-17T00:23:54.121Z,11.30
2023-03-17T00:26:21.144Z,12.80
2023-03-17T00:28:47.760Z,12.70
2023-03-17T00:31:20.345Z,13.13
2023-03-17T00:33:47.938Z,12.33
2023-03-17T00:36:17.849Z,13.33
2023-03-17T00:38:45.244Z,13.30
2023-03-17T00:41:11.756Z,13.27
2023-03-17T00:43:39.235Z,14.70
2023-03-17T00:46:14.609Z,12.97
2023-03-17T00:48:42.745Z,13.13
2023-03-17T00:51:12.243Z,13.17
2023-03-17T00:53:39.037Z,13.13
2023-03-17T00:56:12.665Z,14.00
2023-03-17T00:58:39.408Z,14.53
2023-03-17T01:01:05.877Z,14.77
2023-03-17T01:03:32.299Z,12.93
2023-03-17T01:05:59.373Z,13.50
2023-03-17T01:08:27.181Z,13.57
2023-03-17T01:10:53.967Z,14.27
2023-03-17T01:13:20.029Z,13.17
2023-03-17T01:15:48.281Z,15.17
2023-03-17T01:18:16.343Z,15.00
2023-03-17T01:20:43.154Z,15.27
2023-03-17T01:23:09.881Z,14.57
2023-03-17T01:25:37.774Z,14.80
2023-03-17T01:28:04.989Z,14.13
2023-03-17T01:30:37.777Z,14.60
2023-03-17T01:33:05.851Z,14.77
2023-03-17T01:35:32.513Z,15.67
2023-03-17T01:37:59.119Z,14.33
2023-03-17T01:40:33.028Z,14.70
2023-03-17T01:43:01.829Z,15.20
2023-03-17T01:46:05.965Z,14.77
2023-03-17T01:48:37.874Z,14.70
2023-03-17T01:51:08.229Z,15.07
2023-03-17T01:53:35.500Z,14.70
2023-03-17T01:56:03.288Z,14.00
2023-03-17T01:58:31.053Z,13.93
2023-03-17T02:00:57.459Z,15.93
2023-03-17T02:03:23.603Z,14.77
2023-03-17T02:05:51.741Z,13.60
2023-03-17T02:08:18.073Z,14.23
2023-03-17T02:10:48.733Z,14.73
2023-03-17T02:13:16.024Z,14.27
2023-03-17T02:15:48.038Z,14.03
2023-03-17T02:18:16.966Z,14.43
2023-03-17T02:20:46.418Z,14.17
2023-03-17T02:23:17.876Z,14.13
2023-03-17T02:25:46.717Z,14.60
2023-03-17T02:28:25.228Z,14.03
2023-03-17T02:30:51.715Z,14.43
2023-03-17T02:33:18.322Z,13.63
2023-03-17T02:35:45.455Z,13.50
2023-03-17T02:38:11.711Z,14.30
2023-03-17T02:40:38.112Z,13.77
2023-03-17T02:43:04.940Z,14.10
2023-03-17T02:45:31.424Z,13.57
2023-03-17T02:47:58.294Z,12.60
2023-03-17T02:50:28.140Z,13.33
2023-03-17T02:52:54.412Z,12.57
2023-03-17T02:55:21.515Z,12.30
2023-03-17T02:57:47.595Z,12.60
2023-03-17T03:00:14.709Z,11.77
2023-03-17T03:02:41.268Z,13.07
2023-03-17T03:05:08.921Z,13.53
2023-03-17T03:07:35.651Z,13.17
2023-03-17T03:10:02.259Z,11.63
2023-03-17T03:12:28.446Z,12.77
2023-03-17T03:14:54.877Z,13.23
2023-03-17T03:17:21.127Z,11.47
2023-03-17T03:19:48.902Z,11.60
2023-03-17T03:22:15.160Z,12.00
2023-03-17T03:24:41.816Z,11.33
2023-03-17T03:27:08.041Z,11.10
2023-03-17T03:29:34.689Z,10.70
2023-03-17T03:32:00.903Z,10.97
2023-03-17T03:34:28.350Z,10.30
2023-03-17T03:36:54.464Z,11.20
2023-03-17T03:39:20.908Z,10.73
2023-03-17T03:41:47.047Z,10.77
2023-03-17T03:44:13.450Z,10.67
2023-03-17T03:46:39.764Z,11.20
2023-03-17T03:49:06.685Z,9.40
2023-03-17T03:51:32.752Z,10.50
2023-03-17T03:54:00.891Z,9.53
2023-03-17T03:56:27.160Z,9.93
2023-03-17T03:58:53.554Z,10.53
2023-03-17T04:01:19.639Z,10.37
2023-03-17T04:03:46.593Z,10.13
2023-03-17T04:06:12.739Z,10.20
2023-03-17T04:08:39.146Z,9.77
2023-03-17T04:11:05.572Z,9.90
2023-03-17T04:13:32.186Z,10.10
2023-03-17T04:15:58.348Z,12.43
2023-03-17T04:18:25.077Z,9.60
2023-03-17T04:20:51.393Z,9.33
2023-03-17T04:23:18.433Z,8.70
2023-03-17T04:25:45.254Z,8.53
2023-03-17T04:28:11.856Z,8.93
2023-03-17T04:30:38.595Z,8.83
2023-03-17T04:33:05.276Z,8.50
2023-03-17T04:35:31.591Z,8.87
2023-03-17T04:37:58.175Z,9.03
2023-03-17T04:40:24.392Z,9.23
2023-03-17T04:42:50.941Z,9.10
2023-03-17T04:45:17.247Z,9.57
2023-03-17T04:47:45.432Z,8.80
2023-03-17T04:50:12.748Z,8.57
2023-03-17T04:52:40.367Z,8.50
2023-03-17T04:55:11.361Z,8.97
2023-03-17T04:57:38.099Z,8.37
2023-03-17T05:00:06.462Z,7.20
2023-03-17T05:02:32.905Z,8.47
2023-03-17T05:04:59.036Z,8.17
2023-03-17T05:07:25.420Z,8.70
2023-03-17T05:09:51.889Z,9.57
2023-03-17T05:12:18.418Z,9.37
2023-03-17T05:14:44.817Z,8.93
2023-03-17T05:17:11.340Z,8.87
2023-03-17T05:19:37.936Z,8.73
2023-03-17T05:22:05.024Z,8.13
2023-03-17T05:24:31.436Z,8.63
2023-03-17T05:26:57.906Z,8.47
2023-03-17T05:29:23.995Z,8.90
2023-03-17T05:31:50.707Z,8.80
2023-03-17T05:34:17.029Z,8.93
2023-03-17T05:36:43.972Z,8.07
2023-03-17T05:39:12.306Z,8.40
2023-03-17T05:41:40.996Z,7.87
2023-03-17T05:44:07.874Z,8.40
2023-03-17T05:46:34.516Z,8.50
2023-03-17T05:49:00.753Z,8.90
2023-03-17T05:51:27.088Z,9.17
2023-03-17T05:53:53.198Z,8.17
2023-03-17T05:56:19.952Z,8.20
2023-03-17T05:58:46.089Z,8.70
2023-03-17T06:01:13.597Z,8.13
2023-03-17T06:03:40.145Z,9.23
2023-03-17T06:06:06.689Z,9.50
2023-03-17T06:08:33.049Z,8.77
2023-03-17T06:10:59.992Z,8.60
2023-03-17T06:13:26.388Z,8.53
2023-03-17T06:15:53.028Z,9.10
2023-03-17T06:18:19.275Z,8.47
2023-03-17T06:20:46.177Z,8.33
2023-03-17T06:23:12.208Z,9.30
2023-03-17T06:25:38.772Z,8.27
2023-03-17T06:28:05.576Z,8.17
2023-03-17T06:30:33.570Z,8.83
2023-03-17T06:33:00.699Z,9.10
2023-03-17T06:35:27.952Z,8.97
2023-03-17T06:37:54.315Z,8.70
2023-03-17T06:40:21.141Z,9.30
2023-03-17T06:42:47.452Z,9.90
2023-03-17T06:45:13.541Z,9.53
2023-03-17T06:47:40.258Z,10.00
2023-03-17T06:50:11.486Z,9.27
2023-03-17T06:52:38.910Z,9.20
2023-03-17T06:55:05.588Z,9.00
2023-03-17T06:57:32.208Z,8.50
2023-03-17T06:59:58.511Z,8.57
2023-03-17T07:02:25.268Z,8.27
2023-03-17T07:04:51.539Z,8.20
2023-03-17T07:07:20.054Z,8.83
2023-03-17T07:09:47.095Z,8.90
2023-03-17T07:12:13.801Z,7.90
2023-03-17T07:14:39.910Z,9.20
2023-03-17T07:17:06.421Z,8.57
2023-03-17T07:19:34.357Z,8.63
2023-03-17T07:22:00.733Z,8.40
2023-03-17T07:24:26.925Z,9.10
2023-03-17T07:26:53.332Z,8.30
2023-03-17T07:29:20.564Z,9.63
2023-03-17T07:31:47.581Z,8.60
2023-03-17T07:34:13.778Z,8.53
2023-03-17T07:36:41.109Z,8.77
2023-03-17T07:39:10.140Z,8.93
2023-03-17T07:41:38.194Z,8.70
2023-03-17T07:44:08.885Z,8.17
2023-03-17T07:46:36.060Z,7.77
2023-03-17T07:49:02.166Z,7.43
2023-03-17T07:51:28.847Z,7.73
2023-03-17T07:54:02.547Z,7.37
2023-03-17T07:56:32.432Z,8.13
2023-03-17T07:58:59.279Z,7.27
2023-03-17T08:01:26.992Z,7.53
2023-03-17T08:03:54.291Z,7.80
2023-03-17T08:06:21.014Z,7.20
2023-03-17T08:08:47.881Z,7.17
2023-03-17T08:11:14.369Z,6.50
2023-03-17T08:13:40.532Z,6.27
2023-03-17T08:16:07.365Z,9.63
2023-03-17T08:18:33.470Z,9.63
2023-03-17T08:21:01.247Z,9.17
2023-03-17T08:23:27.668Z,12.10
2023-03-17T08:25:58.588Z,6.60
2023-03-17T08:28:25.185Z,6.20
2023-03-17T08:30:51.947Z,6.53
2023-03-17T08:33:18.210Z,5.63
2023-03-17T08:35:45.275Z,5.33
2023-03-17T08:38:12.210Z,6.03
2023-03-17T08:40:39.267Z,5.60
2023-03-17T08:43:06.985Z,5.50
2023-03-17T08:45:33.716Z,5.93
2023-03-17T08:48:00.455Z,5.30
2023-03-17T08:50:27.004Z,5.23
2023-03-17T08:52:54.331Z,5.40
2023-03-17T08:55:20.839Z,5.13
2023-03-17T08:57:47.912Z,5.40
2023-03-17T09:00:19.522Z,4.83
2023-03-17T09:02:46.654Z,4.60
2023-03-17T09:05:15.254Z,5.03
2023-03-17T09:07:42.786Z,5.57
2023-03-17T09:10:10.256Z,5.23
2023-03-17T09:12:37.338Z,4.73
2023-03-17T09:15:05.493Z,5.27
2023-03-17T09:17:32.224Z,5.20
2023-03-17T09:19:59.064Z,5.30
2023-03-17T09:22:25.433Z,5.10
2023-03-17T09:24:52.732Z,5.87
2023-03-17T09:27:19.327Z,5.60
2023-03-17T09:29:46.399Z,5.83
2023-03-17T09:32:12.583Z,5.90
2023-03-17T09:34:39.071Z,5.70
2023-03-17T09:37:05.975Z,6.03
2023-03-17T09:39:32.772Z,5.70
2023-03-17T09:42:32.646Z,5.13
2023-03-17T09:45:19.211Z,6.10
2023-03-17T09:47:45.714Z,5.33
2023-03-17T09:50:25.110Z,5.23
2023-03-17T09:52:56.124Z,5.63
2023-03-17T09:55:27.290Z,5.50
2023-03-17T09:57:56.130Z,5.27
2023-03-17T10:00:26.767Z,6.00
2023-03-17T10:02:53.443Z,6.77
2023-03-17T10:05:25.314Z,5.97
2023-03-17T10:07:58.650Z,5.30
2023-03-17T10:10:36.905Z,5.60
2023-03-17T10:13:25.609Z,5.67
2023-03-17T10:16:06.748Z,5.90
2023-03-17T10:18:44.622Z,6.60
2023-03-17T10:21:17.232Z,5.83
2023-03-17T10:23:44.910Z,5.97
2023-03-17T10:26:28.961Z,6.03
2023-03-17T10:28:55.373Z,5.27
2023-03-17T10:31:32.386Z,5.70
2023-03-17T10:34:12.687Z,6.40
2023-03-17T10:36:48.618Z,5.77
2023-03-17T10:39:19.092Z,10.83
2023-03-17T10:41:56.495Z,5.30
2023-03-17T10:44:29.964Z,6.37
2023-03-17T10:46:56.542Z,5.80
2023-03-17T10:49:23.859Z,5.67
2023-03-17T10:51:53.151Z,5.30
2023-03-17T10:54:23.007Z,5.63
2023-03-17T10:56:59.710Z,6.77
2023-03-17T11:02:18.188Z,6.67
2023-03-17T11:04:45.060Z,5.80
2023-03-17T11:07:20.573Z,6.63
2023-03-17T11:09:51.798Z,5.73
2023-03-17T11:12:40.468Z,5.70
2023-03-17T11:15:12.685Z,6.03
2023-03-17T11:17:50.781Z,5.83
2023-03-17T11:20:33.978Z,5.33
2023-03-17T11:23:25.658Z,5.73
2023-03-17T11:26:03.897Z,7.17
2023-03-17T11:28:37.504Z,7.43
2023-03-17T11:31:14.770Z,7.83
2023-03-17T11:33:47.695Z,6.83
2023-03-17T11:36:38.700Z,8.23
2023-03-17T11:39:22.056Z,8.83
2023-03-17T11:42:07.183Z,8.30
2023-03-17T11:44:41.543Z,8.43
2023-03-17T11:47:27.673Z,9.43
2023-03-17T11:50:08.030Z,7.57
2023-03-17T11:52:45.059Z,7.97
2023-03-17T11:55:25.037Z,8.00
2023-03-17T11:57:59.820Z,7.30
2023-03-17T12:00:34.639Z,8.03
2023-03-17T12:03:14.077Z,7.03
2023-03-17T12:05:42.275Z,6.70
2023-03-17T12:08:22.792Z,7.17
2023-03-17T12:10:55.847Z,6.97
2023-03-17T12:13:29.570Z,7.70
2023-03-17T12:16:03.472Z,6.50
2023-03-17T12:18:36.778Z,7.40
2023-03-17T12:21:16.782Z,6.53
2023-03-17T12:23:50.185Z,6.60
2023-03-17T12:26:29.870Z,6.40
2023-03-17T12:29:01.760Z,5.77
2023-03-17T12:31:32.732Z,6.20
2023-03-17T12:34:27.867Z,7.00
2023-03-17T12:36:55.097Z,14.67
2023-03-17T12:39:28.054Z,22.23
2023-03-17T12:42:12.874Z,34.90
2023-03-17T12:44:57.431Z,19.27
2023-03-17T12:47:26.883Z,12.83
2023-03-17T12:50:50.411Z,7.70
2023-03-17T12:53:36.217Z,7.33
2023-03-17T12:56:23.580Z,7.57
2023-03-17T12:58:52.508Z,9.93
2023-03-17T13:01:19.007Z,6.50
2023-03-17T13:04:00.267Z,6.23
2023-03-17T13:06:30.437Z,6.33
2023-03-17T13:09:32.085Z,9.30
2023-03-17T13:12:01.217Z,7.03
2023-03-17T13:14:40.885Z,7.00
2023-03-17T13:17:19.363Z,14.77
2023-03-17T13:19:54.214Z,7.73
2023-03-17T13:22:20.631Z,10.43
2023-03-17T13:24:50.942Z,9.00
2023-03-17T13:27:30.195Z,8.30
2023-03-17T13:30:16.233Z,26.90
2023-03-17T13:32:43.065Z,19.47
2023-03-17T13:35:18.730Z,7.93
2023-03-17T13:38:02.761Z,7.70
2023-03-17T13:41:06.347Z,6.00
2023-03-17T13:43:47.824Z,5.93
2023-03-17T13:46:35.934Z,5.77
2023-03-17T13:49:17.678Z,5.37
2023-03-17T13:52:04.785Z,6.17
2023-03-17T13:54:34.262Z,5.23
2023-03-17T13:57:25.819Z,4.83
2023-03-17T14:00:06.618Z,5.77
2023-03-17T14:02:37.855Z,5.03
2023-03-17T14:05:19.629Z,6.20
2023-03-17T14:07:54.174Z,5.27
2023-03-17T14:10:24.640Z,8.93
2023-03-17T14:13:18.802Z,5.87
2023-03-17T14:16:00.404Z,5.10
2023-03-17T14:18:35.487Z,4.87
2023-03-17T14:21:09.339Z,6.10
2023-03-17T14:23:37.052Z,5.90
2023-03-17T14:26:04.410Z,6.50
2023-03-17T14:28:34.109Z,5.70
2023-03-17T14:31:00.494Z,7.67
2023-03-17T14:33:33.845Z,5.80
2023-03-17T14:36:01.994Z,6.10
2023-03-17T14:38:31.375Z,5.20
2023-03-17T14:41:15.822Z,5.47
2023-03-17T14:43:43.366Z,5.30
2023-03-17T14:46:14.224Z,8.00
2023-03-17T14:48:43.201Z,5.50
2023-03-17T14:51:27.437Z,5.63
2023-03-17T14:53:59.934Z,5.53
2023-03-17T14:56:37.673Z,8.33
2023-03-17T14:59:24.697Z,5.60
2023-03-17T15:01:57.021Z,5.63
2023-03-17T15:04:28.436Z,4.60
2023-03-17T15:07:06.884Z,4.97
2023-03-17T15:09:33.483Z,6.17
2023-03-17T15:12:05.436Z,5.00
2023-03-17T15:14:36.914Z,4.67
2023-03-17T15:17:06.346Z,4.60
2023-03-17T15:19:41.202Z,4.67
2023-03-17T15:22:29.304Z,5.30
2023-03-17T15:25:17.391Z,5.33
2023-03-17T15:27:44.944Z,4.83
2023-03-17T15:30:12.084Z,4.63
2023-03-17T15:32:38.781Z,5.50
2023-03-17T15:35:06.894Z,5.80
2023-03-17T15:37:34.731Z,5.77
2023-03-17T15:40:02.680Z,4.30
2023-03-17T15:42:32.053Z,6.10
2023-03-17T15:45:00.544Z,7.00
2023-03-17T15:47:29.464Z,4.87
2023-03-17T15:50:09.606Z,4.73
2023-03-17T15:52:35.790Z,4.60
2023-03-17T15:55:13.886Z,4.50
2023-03-17T15:57:40.896Z,5.87
2023-03-17T16:00:16.087Z,3.97
2023-03-17T16:02:42.373Z,5.73
2023-03-17T16:05:31.159Z,4.30
2023-03-17T16:07:58.080Z,4.83
2023-03-17T16:10:27.800Z,4.80
2023-03-17T16:12:54.949Z,4.40
2023-03-17T16:15:26.889Z,5.30
2023-03-17T16:18:17.281Z,4.57
2023-03-17T16:20:47.041Z,4.53
2023-03-17T16:23:26.443Z,4.40
2023-03-17T16:25:55.427Z,4.07
2023-03-17T16:28:30.435Z,4.50
2023-03-17T16:30:59.244Z,5.63
2023-03-17T16:33:43.789Z,4.30
2023-03-17T16:36:15.390Z,4.90
2023-03-17T16:38:42.313Z,4.47
2023-03-17T16:41:18.910Z,4.80
2023-03-17T16:43:50.366Z,4.50
2023-03-17T16:46:19.094Z,5.47
2023-03-17T16:48:45.452Z,5.20
2023-03-17T16:51:12.148Z,4.93
2023-03-17T16:53:38.469Z,4.80
2023-03-17T16:56:13.048Z,4.90
2023-03-17T16:58:41.040Z,4.47
2023-03-17T17:01:15.626Z,4.57
2023-03-17T17:03:42.731Z,4.70
2023-03-17T17:06:10.591Z,4.23
2023-03-17T17:08:37.406Z,4.63
2023-03-17T17:11:03.998Z,5.50
2023-03-17T17:13:30.464Z,6.43
2023-03-17T17:15:57.338Z,5.47
2023-03-17T17:18:26.495Z,6.40
2023-03-17T17:20:53.700Z,6.43
2023-03-17T17:23:25.662Z,7.00
2023-03-17T17:25:53.681Z,7.00
2023-03-17T17:28:22.119Z,6.97
2023-03-17T17:30:50.875Z,6.90
2023-03-17T17:33:19.026Z,7.30
2023-03-17T17:35:47.691Z,7.07
2023-03-17T17:38:25.674Z,6.20
2023-03-17T17:40:54.197Z,6.73
2023-03-17T17:43:20.999Z,6.27
2023-03-17T17:45:48.143Z,6.93
2023-03-17T17:48:17.221Z,6.33
2023-03-17T17:50:44.376Z,6.60
2023-03-17T17:53:11.814Z,6.63
2023-03-17T17:55:43.340Z,6.97
2023-03-17T17:58:21.567Z,6.67
2023-03-17T18:00:49.227Z,6.67
2023-03-17T18:03:15.815Z,7.37
2023-03-17T18:05:42.531Z,7.07
2023-03-17T18:08:13.186Z,6.63
2023-03-17T18:10:40.366Z,6.57
2023-03-17T18:13:06.902Z,6.77
2023-03-17T18:15:33.681Z,7.13
2023-03-17T18:18:00.171Z,7.20
2023-03-17T18:20:27.509Z,6.07
2023-03-17T18:22:53.786Z,6.43
2023-03-17T18:25:20.682Z,7.37
2023-03-17T18:27:47.699Z,6.20
2023-03-17T18:30:27.046Z,6.70
2023-03-17T18:32:57.443Z,7.03
2023-03-17T18:35:26.462Z,6.33
2023-03-17T18:37:54.667Z,6.70
2023-03-17T18:40:21.593Z,7.20
2023-03-17T18:42:48.128Z,7.33
2023-03-17T18:45:15.337Z,7.10
2023-03-17T18:47:42.073Z,6.70
2023-03-17T18:50:12.222Z,7.30
2023-03-17T18:52:40.383Z,6.93
2023-03-17T18:55:11.041Z,7.20
2023-03-17T18:57:37.749Z,7.23
2023-03-17T19:00:05.987Z,6.53
2023-03-17T19:02:35.652Z,6.83
2023-03-17T19:05:04.410Z,6.60
2023-03-17T19:07:31.090Z,7.20
2023-03-17T19:09:58.786Z,6.77
2023-03-17T19:12:25.960Z,7.53
2023-03-17T19:14:52.624Z,7.53
2023-03-17T19:17:19.027Z,7.23
2023-03-17T19:19:46.189Z,7.67
2023-03-17T19:22:13.422Z,7.03
2023-03-17T19:24:40.438Z,7.30
2023-03-17T19:27:06.831Z,7.70
2023-03-17T19:29:33.437Z,7.73
2023-03-17T19:31:59.855Z,7.27
2023-03-17T19:34:26.811Z,8.00
2023-03-17T19:36:53.673Z,7.20
2023-03-17T19:39:21.019Z,6.70
2023-03-17T19:41:49.428Z,7.23
2023-03-17T19:44:16.233Z,7.27
2023-03-17T19:46:42.619Z,7.80
2023-03-17T19:49:09.826Z,7.80
2023-03-17T19:51:36.373Z,7.53
2023-03-17T19:54:04.589Z,7.90
2023-03-17T19:56:31.653Z,7.77
2023-03-17T19:58:58.245Z,8.17
2023-03-17T20:01:25.095Z,7.80
2023-03-17T20:03:52.012Z,8.43
2023-03-17T20:06:18.381Z,8.00
2023-03-17T20:08:46.673Z,7.87
2023-03-17T20:11:13.723Z,7.60
2023-03-17T20:13:40.667Z,9.10
2023-03-17T20:16:08.088Z,8.10
2023-03-17T20:18:35.255Z,8.47
2023-03-17T20:21:07.122Z,8.00
2023-03-17T20:23:36.008Z,8.93
2023-03-17T20:26:03.031Z,8.23
2023-03-17T20:28:30.645Z,7.70
2023-03-17T20:30:58.904Z,8.17
2023-03-17T20:33:26.179Z,7.77
2023-03-17T20:35:52.816Z,8.63
2023-03-17T20:38:19.766Z,9.03
2023-03-17T20:40:46.465Z,8.37
2023-03-17T20:43:14.218Z,8.60
2023-03-17T20:45:41.155Z,7.43
2023-03-17T20:48:10.140Z,8.13
2023-03-17T20:50:37.791Z,8.87
2023-03-17T20:53:04.573Z,8.23
2023-03-17T20:55:31.344Z,8.60
2023-03-17T20:57:58.976Z,8.23
2023-03-17T21:00:25.584Z,8.20
2023-03-17T21:02:52.569Z,7.50
2023-03-17T21:05:22.427Z,7.97
2023-03-17T21:07:50.023Z,8.13
2023-03-17T21:10:17.542Z,8.13
2023-03-17T21:12:45.062Z,8.13
2023-03-17T21:15:12.192Z,7.93
2023-03-17T21:17:41.563Z,7.57
2023-03-17T21:20:10.997Z,7.90
2023-03-17T21:22:39.314Z,7.93
2023-03-17T21:25:07.972Z,7.33
2023-03-17T21:27:38.922Z,7.93
2023-03-17T21:30:09.114Z,7.57
2023-03-17T21:32:36.425Z,8.07
2023-03-17T21:35:04.198Z,7.17
2023-03-17T21:37:30.802Z,8.23
2023-03-17T21:39:57.517Z,7.27
2023-03-17T21:42:24.679Z,8.10
2023-03-17T21:44:51.655Z,7.70
2023-03-17T21:47:19.239Z,8.20
2023-03-17T21:49:46.553Z,7.37
2023-03-17T21:52:14.356Z,7.37
2023-03-17T21:54:41.357Z,7.87
2023-03-17T21:57:08.275Z,7.73
2023-03-17T21:59:35.088Z,7.70
2023-03-17T22:02:02.475Z,7.60
2023-03-17T22:04:29.192Z,8.30
2023-03-17T22:06:56.420Z,7.47
2023-03-17T22:09:22.746Z,7.20
2023-03-17T22:11:49.581Z,7.10
2023-03-17T22:14:19.402Z,7.40
2023-03-17T22:16:47.826Z,7.47
2023-03-17T22:19:15.675Z,8.03
2023-03-17T22:21:43.545Z,7.77
2023-03-17T22:24:10.363Z,7.00
2023-03-17T22:26:37.180Z,7.43
2023-03-17T22:29:03.458Z,7.23
2023-03-17T22:31:30.555Z,7.17
2023-03-17T22:33:58.066Z,7.97
2023-03-17T22:36:25.305Z,8.07
2023-03-17T22:38:51.955Z,8.27
2023-03-17T22:41:21.282Z,7.43
2023-03-17T22:43:48.010Z,8.37
2023-03-17T22:46:16.179Z,7.60
2023-03-17T22:48:44.198Z,8.00
2023-03-17T22:51:16.326Z,7.60
2023-03-17T22:53:43.742Z,7.73
2023-03-17T22:56:11.689Z,8.23
2023-03-17T22:58:39.389Z,7.47
2023-03-17T23:01:07.273Z,7.27
2023-03-17T23:03:34.222Z,7.83
2023-03-17T23:06:03.478Z,8.03
2023-03-17T23:08:34.356Z,8.17
2023-03-17T23:11:05.119Z,7.70
2023-03-17T23:13:31.355Z,7.80
2023-03-17T23:15:57.741Z,8.67
2023-03-17T23:18:23.983Z,7.70
2023-03-17T23:20:50.388Z,8.17
2023-03-17T23:23:16.840Z,8.30
2023-03-17T23:25:43.334Z,9.30
2023-03-17T23:28:09.792Z,9.10
2023-03-17T23:30:37.284Z,9.27
2023-03-17T23:33:04.580Z,9.93
2023-03-17T23:35:31.577Z,9.37
2023-03-17T23:37:57.661Z,9.07
2023-03-17T23:40:24.051Z,8.93
2023-03-17T23:42:53.538Z,10.43
2023-03-17T23:45:22.462Z,9.73
2023-03-17T23:47:50.747Z,9.97
2023-03-17T23:50:18.646Z,9.33
2023-03-17T23:52:44.797Z,9.70
2023-03-17T23:55:11.602Z,9.87
2023-03-17T23:57:38.347Z,10.03
